createdAt,value
2023-03-12T00:00:08.913Z,5.03
2023-03-12T00:02:36.388Z,5.43
2023-03-12T00:05:03.883Z,5.10
2023-03-12T00:07:30.851Z,5.00
2023-03-12T00:09:58.038Z,5.73
2023-03-12T00:12:24.927Z,5.85
2023-03-12T00:14:52.327Z,5.22
2023-03-12T00:17:19.149Z,6.18
2023-03-12T00:19:46.457Z,5.85
2023-03-12T00:22:14.128Z,4.57
2023-03-12T00:24:41.344Z,5.47
2023-03-12T00:27:08.672Z,5.97
2023-03-12T00:29:36.160Z,5.75
2023-03-12T00:32:03.534Z,5.13
2023-03-12T00:34:30.880Z,5.53
2023-03-12T00:36:58.110Z,5.05
2023-03-12T00:39:25.610Z,5.88
2023-03-12T00:41:52.905Z,5.78
2023-03-12T00:44:20.581Z,5.95
2023-03-12T00:46:47.851Z,5.83
2023-03-12T00:49:14.754Z,6.10
2023-03-12T00:51:42.023Z,6.05
2023-03-12T00:54:09.353Z,5.65
2023-03-12T00:56:36.277Z,5.55
2023-03-12T00:59:03.485Z,5.03
2023-03-12T01:01:30.333Z,5.60
2023-03-12T01:03:58.971Z,5.45
2023-03-12T01:06:26.566Z,5.20
2023-03-12T01:08:55.329Z,5.15
2023-03-12T01:11:23.162Z,5.10
2023-03-12T01:13:50.718Z,5.35
2023-03-12T01:16:18.169Z,5.03
2023-03-12T01:18:45.098Z,6.78
2023-03-12T01:21:12.579Z,5.68
2023-03-12T01:23:39.842Z,5.83
2023-03-12T01:26:07.119Z,5.75
2023-03-12T01:28:34.437Z,5.50
2023-03-12T01:31:13.974Z,4.75
2023-03-12T01:33:41.359Z,4.88
2023-03-12T01:36:24.064Z,5.40
2023-03-12T01:38:52.882Z,5.22
2023-03-12T01:41:20.281Z,5.07
2023-03-12T01:43:48.770Z,5.55
2023-03-12T01:46:29.504Z,5.25
2023-03-12T01:49:09.005Z,4.90
2023-03-12T01:51:41.507Z,4.55
2023-03-12T01:54:23.567Z,5.40
2023-03-12T01:56:51.185Z,4.43
2023-03-12T01:59:25.450Z,4.88
2023-03-12T02:01:53.645Z,5.10
2023-03-12T02:04:22.888Z,4.80
2023-03-12T02:06:55.408Z,5.07
2023-03-12T02:09:23.168Z,4.72
2023-03-12T02:11:50.588Z,5.25
2023-03-12T02:14:19.114Z,4.20
2023-03-12T02:16:46.208Z,4.53
2023-03-12T02:19:51.729Z,4.88
2023-03-12T02:22:19.193Z,4.28
2023-03-12T02:25:27.881Z,4.65
2023-03-12T02:27:55.082Z,4.30
2023-03-12T02:30:22.651Z,4.72
2023-03-12T02:32:50.632Z,4.00
2023-03-12T02:35:18.057Z,4.15
2023-03-12T02:37:53.851Z,4.43
2023-03-12T02:40:33.769Z,4.17
2023-03-12T02:43:03.097Z,4.53
2023-03-12T02:45:30.150Z,4.30
2023-03-12T02:47:57.105Z,4.50
2023-03-12T02:50:24.478Z,4.75
2023-03-12T02:52:51.760Z,4.10
2023-03-12T02:55:19.534Z,4.10
2023-03-12T02:57:46.750Z,4.55
2023-03-12T03:00:16.626Z,4.03
2023-03-12T03:02:48.370Z,4.35
2023-03-12T03:05:16.209Z,3.73
2023-03-12T03:07:43.534Z,4.20
2023-03-12T03:10:11.004Z,4.38
2023-03-12T03:12:38.433Z,3.38
2023-03-12T03:15:06.957Z,4.30
2023-03-12T03:17:34.201Z,3.63
2023-03-12T03:20:01.536Z,4.25
2023-03-12T03:22:28.802Z,4.25
2023-03-12T03:24:56.069Z,4.22
2023-03-12T03:27:23.238Z,4.43
2023-03-12T03:29:50.849Z,3.80
2023-03-12T03:32:18.331Z,3.80
2023-03-12T03:34:45.688Z,3.42
2023-03-12T03:37:12.559Z,3.97
2023-03-12T03:39:40.017Z,3.28
2023-03-12T03:42:07.338Z,3.17
2023-03-12T03:44:34.594Z,2.63
2023-03-12T03:47:02.440Z,4.00
2023-03-12T03:49:29.656Z,3.17
2023-03-12T03:51:57.092Z,4.20
2023-03-12T03:54:33.929Z,3.43
2023-03-12T03:57:02.090Z,3.53
2023-03-12T03:59:29.518Z,3.72
2023-03-12T04:01:57.238Z,3.72
2023-03-12T04:04:25.246Z,2.80
2023-03-12T04:06:52.678Z,2.70
2023-03-12T04:09:19.942Z,3.22
2023-03-12T04:11:47.296Z,4.45
2023-03-12T04:14:14.966Z,3.95
2023-03-12T04:16:45.070Z,3.15
2023-03-12T04:19:12.783Z,2.77
2023-03-12T04:21:40.339Z,4.20
2023-03-12T04:24:13.096Z,3.75
2023-03-12T04:26:40.048Z,3.95
2023-03-12T04:29:08.317Z,3.78
2023-03-12T04:31:35.312Z,3.33
2023-03-12T04:34:02.575Z,4.40
2023-03-12T04:36:30.064Z,3.00
2023-03-12T04:38:57.768Z,2.58
2023-03-12T04:41:29.640Z,3.60
2023-03-12T04:44:05.334Z,3.40
2023-03-12T04:46:34.462Z,3.00
2023-03-12T04:49:02.786Z,3.63
2023-03-12T04:51:32.106Z,4.20
2023-03-12T04:54:01.650Z,4.20
2023-03-12T04:56:29.152Z,3.03
2023-03-12T04:58:56.572Z,1.90
2023-03-12T05:01:30.268Z,2.97
2023-03-12T05:03:57.691Z,3.90
2023-03-12T05:06:25.762Z,4.28
2023-03-12T05:08:53.816Z,3.83
2023-03-12T05:11:21.476Z,2.70
2023-03-12T05:13:49.086Z,3.67
2023-03-12T05:16:17.261Z,3.75
2023-03-12T05:18:45.002Z,4.40
2023-03-12T05:21:17.003Z,2.80
2023-03-12T05:23:45.142Z,3.50
2023-03-12T05:26:21.484Z,3.00
2023-03-12T05:28:49.204Z,3.30
2023-03-12T05:31:18.150Z,4.00
2023-03-12T05:33:46.484Z,3.60
2023-03-12T05:36:15.154Z,3.72
2023-03-12T05:38:44.949Z,4.20
2023-03-12T05:41:24.105Z,4.05
2023-03-12T05:43:54.701Z,3.28
2023-03-12T05:46:22.936Z,2.63
2023-03-12T05:48:50.648Z,4.10
2023-03-12T05:51:18.587Z,2.70
2023-03-12T05:53:46.226Z,3.30
2023-03-12T05:56:16.260Z,3.28
2023-03-12T05:58:43.566Z,3.37
2023-03-12T06:01:23.418Z,2.60
2023-03-12T06:03:51.435Z,3.03
2023-03-12T06:06:19.504Z,2.95
2023-03-12T06:08:46.965Z,3.03
2023-03-12T06:11:14.394Z,3.37
2023-03-12T06:13:41.826Z,4.10
2023-03-12T06:16:17.683Z,4.25
2023-03-12T06:18:45.034Z,4.20
2023-03-12T06:21:15.473Z,3.83
2023-03-12T06:23:43.267Z,3.27
2023-03-12T06:26:14.213Z,4.28
2023-03-12T06:28:41.631Z,5.38
2023-03-12T06:31:09.547Z,4.13
2023-03-12T06:33:36.877Z,3.70
2023-03-12T06:36:06.411Z,4.23
2023-03-12T06:38:34.127Z,4.53
2023-03-12T06:41:10.245Z,4.10
2023-03-12T06:43:38.569Z,4.28
2023-03-12T06:46:07.567Z,4.30
2023-03-12T06:48:36.862Z,3.33
2023-03-12T06:51:04.472Z,3.50
2023-03-12T06:53:32.067Z,4.25
2023-03-12T06:55:59.241Z,4.68
2023-03-12T06:58:26.432Z,3.05
2023-03-12T07:00:53.950Z,4.23
2023-03-12T07:03:21.531Z,3.28
2023-03-12T07:05:51.096Z,4.78
2023-03-12T07:08:18.932Z,4.03
2023-03-12T07:10:46.360Z,4.55
2023-03-12T07:13:13.606Z,5.47
2023-03-12T07:15:41.219Z,5.40
2023-03-12T07:18:10.667Z,4.90
2023-03-12T07:20:42.658Z,2.58
2023-03-12T07:23:10.489Z,4.45
2023-03-12T07:25:39.246Z,6.50
2023-03-12T07:28:07.543Z,4.05
2023-03-12T07:30:35.197Z,6.20
2023-03-12T07:33:03.495Z,4.63
2023-03-12T07:35:31.515Z,3.35
2023-03-12T07:37:59.593Z,3.77
2023-03-12T07:40:27.121Z,5.72
2023-03-12T07:42:54.353Z,5.70
2023-03-12T07:45:21.924Z,5.38
2023-03-12T07:47:49.779Z,5.72
2023-03-12T07:50:17.469Z,6.60
2023-03-12T07:52:45.210Z,5.07
2023-03-12T07:55:12.818Z,6.57
2023-03-12T07:57:40.194Z,7.57
2023-03-12T08:00:08.717Z,5.70
2023-03-12T08:02:38.918Z,5.93
2023-03-12T08:05:06.499Z,6.40
2023-03-12T08:07:35.226Z,3.60
2023-03-12T08:10:02.951Z,5.10
2023-03-12T08:12:30.401Z,7.47
2023-03-12T08:14:57.649Z,5.63
2023-03-12T08:17:25.173Z,7.00
2023-03-12T08:19:52.610Z,7.97
2023-03-12T08:22:19.864Z,5.38
2023-03-12T08:24:47.669Z,7.88
2023-03-12T08:27:14.963Z,7.70
2023-03-12T08:29:42.374Z,7.38
2023-03-12T08:32:14.199Z,7.80
2023-03-12T08:34:41.483Z,6.95
2023-03-12T08:37:08.733Z,8.38
2023-03-12T08:39:36.066Z,6.90
2023-03-12T08:42:03.907Z,8.70
2023-03-12T08:44:31.144Z,8.35
2023-03-12T08:46:58.402Z,8.70
2023-03-12T08:49:25.709Z,4.18
2023-03-12T08:51:53.016Z,8.37
2023-03-12T08:54:20.950Z,9.05
2023-03-12T08:56:52.011Z,9.38
2023-03-12T08:59:20.627Z,9.27
2023-03-12T09:01:47.842Z,9.88
2023-03-12T09:04:15.596Z,9.03
2023-03-12T09:06:43.137Z,9.18
2023-03-12T09:09:10.540Z,9.48
2023-03-12T09:11:42.533Z,8.20
2023-03-12T09:16:57.740Z,9.43
2023-03-12T09:19:25.139Z,9.77
2023-03-12T09:21:52.351Z,6.38
2023-03-12T09:24:19.570Z,10.98
2023-03-12T09:26:46.922Z,12.40
2023-03-12T09:29:14.151Z,12.50
2023-03-12T09:31:40.940Z,11.75
2023-03-12T09:34:08.166Z,11.48
2023-03-12T09:36:35.911Z,11.73
2023-03-12T09:39:03.301Z,6.40
2023-03-12T09:41:33.585Z,9.63
2023-03-12T09:44:13.677Z,12.43
2023-03-12T09:46:53.573Z,10.60
2023-03-12T09:49:44.857Z,11.75
2023-03-12T09:52:27.106Z,12.25
2023-03-12T09:55:07.382Z,12.83
2023-03-12T09:57:35.219Z,13.48
2023-03-12T10:00:02.785Z,14.10
2023-03-12T10:03:12.766Z,14.30
2023-03-12T10:05:40.011Z,13.60
2023-03-12T10:08:30.864Z,14.03
2023-03-12T10:11:14.791Z,13.43
2023-03-12T10:13:53.766Z,15.40
2023-03-12T10:16:29.207Z,15.95
2023-03-12T10:19:30.571Z,16.05
2023-03-12T10:22:00.455Z,15.30
2023-03-12T10:24:53.454Z,14.10
2023-03-12T10:27:23.799Z,16.40
2023-03-12T10:29:53.442Z,10.75
2023-03-12T10:32:43.489Z,16.70
2023-03-12T10:35:20.433Z,14.57
2023-03-12T10:37:54.375Z,15.65
2023-03-12T10:40:31.061Z,13.02
2023-03-12T10:42:58.572Z,14.73
2023-03-12T10:45:40.611Z,12.23
2023-03-12T10:48:11.720Z,10.90
2023-03-12T10:50:40.612Z,8.65
2023-03-12T10:53:24.014Z,11.00
2023-03-12T10:56:12.255Z,10.65
2023-03-12T10:58:44.893Z,11.23
2023-03-12T11:01:30.647Z,12.33
2023-03-12T11:04:19.476Z,10.68
2023-03-12T11:07:03.953Z,13.50
2023-03-12T11:09:31.227Z,11.98
2023-03-12T11:11:58.134Z,16.50
2023-03-12T11:14:28.379Z,8.97
2023-03-12T11:16:56.660Z,10.20
2023-03-12T11:19:32.461Z,10.25
2023-03-12T11:22:08.144Z,8.88
2023-03-12T11:24:35.571Z,6.72
2023-03-12T11:27:26.829Z,9.03
2023-03-12T11:29:54.966Z,7.70
2023-03-12T11:32:31.403Z,9.50
2023-03-12T11:34:58.687Z,8.68
2023-03-12T11:38:00.945Z,7.13
2023-03-12T11:40:56.704Z,5.90
2023-03-12T11:43:46.682Z,7.55
2023-03-12T11:46:33.493Z,5.53
2023-03-12T11:49:24.811Z,7.53
2023-03-12T11:52:08.656Z,7.18
2023-03-12T11:54:56.722Z,6.70
2023-03-12T11:57:33.757Z,6.55
2023-03-12T12:00:27.579Z,7.82
2023-03-12T12:03:22.611Z,7.03
2023-03-12T12:05:49.909Z,6.88
2023-03-12T12:09:01.246Z,7.27
2023-03-12T12:11:51.013Z,8.05
2023-03-12T12:14:23.611Z,9.05
2023-03-12T12:17:20.342Z,7.55
2023-03-12T12:20:16.459Z,7.70
2023-03-12T12:23:05.502Z,7.23
2023-03-12T12:26:06.512Z,7.25
2023-03-12T12:28:33.805Z,7.65
2023-03-12T12:31:23.104Z,7.40
2023-03-12T12:34:10.068Z,5.93
2023-03-12T12:36:37.522Z,5.20
2023-03-12T12:39:35.508Z,6.53
2023-03-12T12:42:11.695Z,6.03
2023-03-12T12:44:48.141Z,4.65
2023-03-12T12:47:21.290Z,5.25
2023-03-12T12:49:48.903Z,6.53
2023-03-12T12:52:22.098Z,6.05
2023-03-12T12:54:58.497Z,6.22
2023-03-12T12:57:25.900Z,5.90
2023-03-12T13:00:15.325Z,6.47
2023-03-12T13:02:44.830Z,6.60
2023-03-12T13:05:20.698Z,4.80
2023-03-12T13:07:47.961Z,5.70
2023-03-12T13:10:45.149Z,6.70
2023-03-12T13:13:23.548Z,7.10
2023-03-12T13:15:51.344Z,6.70
2023-03-12T13:18:27.787Z,5.95
2023-03-12T13:20:55.189Z,6.55
2023-03-12T13:23:58.877Z,6.38
2023-03-12T13:26:53.655Z,5.80
2023-03-12T13:29:29.563Z,4.83
2023-03-12T13:31:57.262Z,5.32
2023-03-12T13:34:27.575Z,5.97
2023-03-12T13:37:01.332Z,4.32
2023-03-12T13:39:28.594Z,5.28
2023-03-12T13:41:56.727Z,5.53
2023-03-12T13:44:26.209Z,5.03
2023-03-12T13:47:06.547Z,5.70
2023-03-12T13:50:04.449Z,4.70
2023-03-12T13:52:31.772Z,5.00
2023-03-12T13:55:32.184Z,4.70
2023-03-12T13:58:15.880Z,4.53
2023-03-12T14:00:54.231Z,5.15
2023-03-12T14:03:29.878Z,4.72
2023-03-12T14:06:00.885Z,4.40
2023-03-12T14:08:56.601Z,4.43
2023-03-12T14:11:23.852Z,4.70
2023-03-12T14:14:15.051Z,4.97
2023-03-12T14:16:51.800Z,3.95
2023-03-12T14:19:23.577Z,3.63
2023-03-12T14:21:51.423Z,4.40
2023-03-12T14:24:24.972Z,4.35
2023-03-12T14:26:54.378Z,3.80
2023-03-12T14:29:28.137Z,5.25
2023-03-12T14:32:03.674Z,4.43
2023-03-12T14:34:35.258Z,4.40
2023-03-12T14:37:16.310Z,5.63
2023-03-12T14:40:01.345Z,4.65
2023-03-12T14:42:36.291Z,4.57
2023-03-12T14:45:17.154Z,4.70
2023-03-12T14:47:46.846Z,4.83
2023-03-12T14:50:36.628Z,3.80
2023-03-12T14:53:36.758Z,4.72
2023-03-12T14:56:11.999Z,4.15
2023-03-12T14:58:48.072Z,4.57
2023-03-12T15:01:20.458Z,4.23
2023-03-12T15:03:53.863Z,4.35
2023-03-12T15:06:34.311Z,4.88
2023-03-12T15:09:04.471Z,4.88
2023-03-12T15:11:34.601Z,3.75
2023-03-12T15:14:14.346Z,4.27
2023-03-12T15:16:43.845Z,4.50
2023-03-12T15:19:16.628Z,4.25
2023-03-12T15:21:44.913Z,4.82
2023-03-12T15:24:13.576Z,4.45
2023-03-12T15:26:41.371Z,4.87
2023-03-12T15:29:14.113Z,4.70
2023-03-12T15:31:49.118Z,5.22
2023-03-12T15:34:39.742Z,4.03
2023-03-12T15:37:38.048Z,3.72
2023-03-12T15:40:27.316Z,3.67
2023-03-12T15:42:57.647Z,3.53
2023-03-12T15:45:39.713Z,4.95
2023-03-12T15:48:40.110Z,4.70
2023-03-12T15:51:31.510Z,3.72
2023-03-12T15:54:02.703Z,3.80
2023-03-12T15:56:32.709Z,2.67
2023-03-12T15:59:23.243Z,3.88
2023-03-12T16:01:55.357Z,4.45
2023-03-12T16:04:23.216Z,3.65
2023-03-12T16:06:51.621Z,3.53
2023-03-12T16:09:28.199Z,4.47
2023-03-12T16:11:56.719Z,4.05
2023-03-12T16:14:36.263Z,4.03
2023-03-12T16:17:03.490Z,3.95
2023-03-12T16:19:34.150Z,4.63
2023-03-12T16:22:01.501Z,3.83
2023-03-12T16:24:28.927Z,5.55
2023-03-12T16:26:58.126Z,4.82
2023-03-12T16:29:35.087Z,5.28
2023-03-12T16:32:02.603Z,5.30
2023-03-12T16:34:29.915Z,4.97
2023-03-12T16:36:57.109Z,4.82
2023-03-12T16:39:24.377Z,5.10
2023-03-12T16:41:51.641Z,4.05
2023-03-12T16:44:21.373Z,5.50
2023-03-12T16:46:48.363Z,5.13
2023-03-12T16:49:16.673Z,4.10
2023-03-12T16:51:43.979Z,3.75
2023-03-12T16:54:12.147Z,4.70
2023-03-12T16:56:44.124Z,7.50
2023-03-12T16:59:28.202Z,5.00
2023-03-12T17:01:55.644Z,5.82
2023-03-12T17:04:22.885Z,4.78
2023-03-12T17:06:50.250Z,4.50
2023-03-12T17:09:17.486Z,4.43
2023-03-12T17:11:45.253Z,4.68
2023-03-12T17:14:22.652Z,4.10
2023-03-12T17:16:50.293Z,3.55
2023-03-12T17:19:17.961Z,5.28
2023-03-12T17:21:45.235Z,4.43
2023-03-12T17:24:15.843Z,6.05
2023-03-12T17:26:45.323Z,4.85
2023-03-12T17:29:12.279Z,4.70
2023-03-12T17:31:39.836Z,5.90
2023-03-12T17:34:07.170Z,5.67
2023-03-12T17:36:36.922Z,4.40
2023-03-12T17:39:04.224Z,5.57
2023-03-12T17:41:32.500Z,5.75
2023-03-12T17:44:02.183Z,5.90
2023-03-12T17:46:30.034Z,5.43
2023-03-12T17:48:57.323Z,5.88
2023-03-12T17:51:24.998Z,5.03
2023-03-12T17:53:52.208Z,5.22
2023-03-12T17:56:19.326Z,4.63
2023-03-12T17:58:46.644Z,4.37
2023-03-12T18:01:14.691Z,2.53
2023-03-12T18:03:43.868Z,3.53
2023-03-12T18:06:11.769Z,2.55
2023-03-12T18:08:38.875Z,3.65
2023-03-12T18:11:06.217Z,2.97
2023-03-12T18:13:33.438Z,2.65
2023-03-12T18:16:00.402Z,2.92
2023-03-12T18:18:27.793Z,3.55
2023-03-12T18:20:55.207Z,2.20
2023-03-12T18:23:23.684Z,2.80
2023-03-12T18:25:50.889Z,3.15
2023-03-12T18:28:18.132Z,2.25
2023-03-12T18:30:48.567Z,3.47
2023-03-12T18:33:15.930Z,2.75
2023-03-12T18:35:46.561Z,2.80
2023-03-12T18:38:13.503Z,2.53
2023-03-12T18:40:40.715Z,2.92
2023-03-12T18:43:07.609Z,2.92
2023-03-12T18:45:34.944Z,3.35
2023-03-12T18:48:01.771Z,2.50
2023-03-12T18:50:29.124Z,2.65
2023-03-12T18:52:55.981Z,2.20
2023-03-12T18:55:23.252Z,2.05
2023-03-12T18:57:50.849Z,2.38
2023-03-12T19:00:18.345Z,2.83
2023-03-12T19:02:47.975Z,2.50
2023-03-12T19:05:15.896Z,2.30
2023-03-12T19:07:43.186Z,2.08
2023-03-12T19:10:11.449Z,2.20
2023-03-12T19:12:50.979Z,2.10
2023-03-12T19:15:19.398Z,2.22
2023-03-12T19:17:46.302Z,2.40
2023-03-12T19:20:14.087Z,2.40
2023-03-12T19:22:41.358Z,2.92
2023-03-12T19:25:08.614Z,3.67
2023-03-12T19:27:36.108Z,2.78
2023-03-12T19:30:03.362Z,3.47
2023-03-12T19:32:42.545Z,3.45
2023-03-12T19:35:12.234Z,4.13
2023-03-12T19:37:39.169Z,6.40
2023-03-12T19:40:06.984Z,3.67
2023-03-12T19:42:34.506Z,4.35
2023-03-12T19:45:01.422Z,5.55
2023-03-12T19:47:28.907Z,4.90
2023-03-12T19:49:56.135Z,5.40
2023-03-12T19:52:23.590Z,6.53
2023-03-12T19:55:03.389Z,5.97
2023-03-12T19:57:31.548Z,8.15
2023-03-12T19:59:58.996Z,4.97
2023-03-12T20:02:26.534Z,8.93
2023-03-12T20:04:55.268Z,5.53
2023-03-12T20:07:22.632Z,5.30
2023-03-12T20:09:49.875Z,4.38
2023-03-12T20:12:17.170Z,4.35
2023-03-12T20:14:44.404Z,5.30
2023-03-12T20:17:12.374Z,4.75
2023-03-12T20:19:39.750Z,3.70
2023-03-12T20:22:07.339Z,4.13
2023-03-12T20:24:34.627Z,5.03
2023-03-12T20:27:02.052Z,4.40
2023-03-12T20:29:29.415Z,5.50
2023-03-12T20:31:56.731Z,4.53
2023-03-12T20:34:24.133Z,4.85
2023-03-12T20:36:51.494Z,4.25
2023-03-12T20:39:18.909Z,5.50
2023-03-12T20:41:46.234Z,4.40
2023-03-12T20:44:13.112Z,4.97
2023-03-12T20:46:40.701Z,4.78
2023-03-12T20:49:08.129Z,4.03
2023-03-12T20:51:35.349Z,5.13
2023-03-12T20:54:02.722Z,3.90
2023-03-12T20:56:29.545Z,3.97
2023-03-12T20:58:57.181Z,5.40
2023-03-12T21:01:24.479Z,4.40
2023-03-12T21:03:51.774Z,5.70
2023-03-12T21:06:19.161Z,4.97
2023-03-12T21:08:46.405Z,4.18
2023-03-12T21:11:13.704Z,4.68
2023-03-12T21:13:40.941Z,4.95
2023-03-12T21:16:08.728Z,3.90
2023-03-12T21:18:36.158Z,3.83
2023-03-12T21:21:05.383Z,4.55
2023-03-12T21:23:32.905Z,4.30
2023-03-12T21:26:03.670Z,3.75
2023-03-12T21:28:31.953Z,4.07
2023-03-12T21:31:10.791Z,3.72
2023-03-12T21:33:38.089Z,3.58
2023-03-12T21:36:06.329Z,4.43
2023-03-12T21:38:35.794Z,4.72
2023-03-12T21:41:10.811Z,4.23
2023-03-12T21:43:38.312Z,3.83
2023-03-12T21:46:10.150Z,3.78
2023-03-12T21:48:38.078Z,3.15
2023-03-12T21:51:07.053Z,4.50
2023-03-12T21:53:35.109Z,4.73
2023-03-12T21:56:02.624Z,4.32
2023-03-12T21:58:31.074Z,4.00
2023-03-12T22:01:06.524Z,5.53
2023-03-12T22:03:34.187Z,4.95
2023-03-12T22:06:01.546Z,4.83
2023-03-12T22:08:28.908Z,4.50
2023-03-12T22:10:55.757Z,5.03
2023-03-12T22:13:23.000Z,4.25
2023-03-12T22:15:58.045Z,5.13
2023-03-12T22:18:25.615Z,5.37
2023-03-12T22:20:57.952Z,4.95
2023-03-12T22:23:25.290Z,4.10
2023-03-12T22:25:52.238Z,3.78
2023-03-12T22:28:19.119Z,4.25
2023-03-12T22:30:46.346Z,3.43
2023-03-12T22:33:13.894Z,4.45
2023-03-12T22:35:44.977Z,3.65
2023-03-12T22:38:12.398Z,4.70
2023-03-12T22:40:39.889Z,3.17
2023-03-12T22:43:07.504Z,4.30
2023-03-12T22:45:34.814Z,3.47
2023-03-12T22:48:02.314Z,5.25
2023-03-12T22:50:29.585Z,4.30
2023-03-12T22:52:56.806Z,4.55
2023-03-12T22:55:24.077Z,4.00
2023-03-12T22:57:51.115Z,5.35
2023-03-12T23:00:22.807Z,4.65
2023-03-12T23:02:50.220Z,4.55
2023-03-12T23:05:17.445Z,4.65
2023-03-12T23:07:44.810Z,4.60
2023-03-12T23:10:11.900Z,4.43
2023-03-12T23:12:39.103Z,3.92
2023-03-12T23:15:06.807Z,4.43
2023-03-12T23:17:34.055Z,4.13
2023-03-12T23:20:01.342Z,5.57
2023-03-12T23:22:28.215Z,4.70
2023-03-12T23:24:55.460Z,4.32
2023-03-12T23:27:22.731Z,3.88
2023-03-12T23:29:50.009Z,4.65
2023-03-12T23:32:17.526Z,5.00
2023-03-12T23:34:45.042Z,3.80
2023-03-12T23:37:14.196Z,5.13
2023-03-12T23:39:53.430Z,4.70
2023-03-12T23:42:21.894Z,4.90
2023-03-12T23:44:48.848Z,3.47
2023-03-12T23:47:16.046Z,4.32
2023-03-12T23:49:43.244Z,4.50
2023-03-12T23:52:10.578Z,3.42
2023-03-12T23:54:37.411Z,4.07
2023-03-12T23:57:04.734Z,4.13
2023-03-12T23:59:31.597Z,3.45
